Flight Track Log - Related Links

Times and Time Zones

All times are in EDT time to prevent confusion due to time zone crossing. See the N700QA flight status page for this flight to view local times or setup timezone preferences in your user account.

Time Position Orientation Groundspeed Altitude Reporting Facility
EDT Latitude Longitude Course Direction KTS MPH feet Rate Location/Type
Wed 03:26:00 PM 38.6880 -119.5303 169° South  Level FlightAware Approximate
Wed 03:26:56 PM 39.5667 -119.7833 172° South 200 230 7,400  Level Northern Cal TRACON
Wed 03:27:00 PM 38.5862 -119.5088 173° South  Level FlightAware Approximate
Wed 03:27:51 PM 39.6167 -119.8167 333° Northwest 222 255 9,900  Level Northern Cal TRACON
Wed 03:28:00 PM 38.4839 -119.4917 173° South  Level FlightAware Approximate
Wed 03:28:39 PM 39.6536 -119.7864 32° Northeast 240 276 11,800  Level Oakland Center
Wed 03:29:00 PM 38.3811 -119.4833 180° South  Level FlightAware Approximate
Wed 03:29:40 PM 39.6047 -119.6975 126° Southeast 278 320 14,900  Level Oakland Center
Wed 03:30:00 PM 38.2792 -119.4708 165° South  Level FlightAware Approximate
Wed 03:30:42 PM 39.5211 -119.6783 170° South 304 350 16,900  Level Oakland Center
Wed 03:31:00 PM 38.1769 -119.4587 171° South  Level FlightAware Approximate
Wed 03:31:43 PM 39.4308 -119.6633 173° South 323 372 19,200  Level Oakland Center
Wed 03:32:00 PM 38.0749 -119.4393 172° South  Level FlightAware Approximate
Wed 03:32:45 PM 39.3367 -119.6475 173° South 334 384 20,900  Level Oakland Center
Wed 03:33:46 PM 39.2336 -119.6331 174° South 356 410 21,000 49 Climbing Oakland Center
Wed 03:34:47 PM 39.1258 -119.6161 173° South 379 436 21,000 488 Level Oakland Center
Wed 03:35:49 PM 39.0161 -119.5986 173° South 392 451 22,000 927 Climbing Oakland Center
Wed 03:36:50 PM 38.9072 -119.5836 174° South 395 455 22,900 1,033 Climbing Oakland Center
Wed 03:37:51 PM 38.7742 -119.5639 173° South 400 460 24,100 1,220 Climbing Oakland Center
Wed 03:38:53 PM 38.6628 -119.5478 174° South 401 461 25,400 1,415 Climbing Oakland Center
Wed 03:39:54 PM 38.5539 -119.5303 173° South 401 461 27,000 885 Climbing Oakland Center
Wed 03:40:55 PM 38.4419 -119.5169 175° South 400 460 27,200 787 Climbing Oakland Center
Wed 03:41:56 PM 38.3214 -119.4975 173° South 424 488 28,600 1,463 Climbing Oakland Center
Wed 03:42:58 PM 38.2067 -119.4822 174° South 422 486 30,200 1,171 Climbing Oakland Center
Wed 03:43:59 PM 38.0967 -119.4631 172° South 406 467 31,000 443 Climbing Oakland Center
Wed 03:45:00 PM 37.9814 -119.4447 173° South 406 467 31,100  Climbing Oakland Center
Wed 03:46:01 PM 37.8547 -119.4308 175° South 436 502 31,000  Descending Oakland Center
Wed 03:47:03 PM 37.7358 -119.4136 173° South 436 502 31,100 49 Climbing Oakland Center
Wed 03:48:04 PM 37.5953 -119.3939 174° South 434 499 31,100  Level Oakland Center
Wed 03:49:05 PM 37.4767 -119.3767 173° South 430 495 31,100 -49 Level Oakland Center
Wed 03:50:07 PM 37.3567 -119.3597 174° South 430 495 31,000 390 Descending Oakland Center
Wed 03:51:08 PM 37.2372 -119.3431 174° South 431 496 31,900 1,033 Climbing Oakland Center
Wed 03:52:09 PM 37.1200 -119.3253 173° South 428 493 33,100 1,220 Climbing Oakland Center
Wed 03:53:11 PM 37.0078 -119.3103 174° South 410 472 34,400 927 Climbing Oakland Center
Wed 03:54:12 PM 36.8994 -119.2958 174° South 394 453 35,000 295 Climbing Oakland Center
Wed 03:55:13 PM 36.7869 -119.2786 173° South 405 466 35,000 49 Level Oakland Center
Wed 03:56:15 PM 36.6483 -119.2594 174° South 414 476 35,100 49 Climbing Oakland Center
Wed 03:57:16 PM 36.5328 -119.2433 174° South 417 480 35,100  Level Oakland Center
Wed 03:58:17 PM 36.4189 -119.2275 174° South 416 479 35,100  Level Oakland Center
Wed 03:59:19 PM 36.2972 -119.1967 168° South 419 482 35,100 -49 Level Oakland Center
Wed 04:00:20 PM 36.1922 -119.1517 161° South 421 484 35,000 -49 Descending Oakland Center
Wed 04:01:22 PM 36.0778 -119.1169 166° South 421 484 35,000 46 Level Oakland Center
Wed 04:02:30 PM 35.9381 -119.0700 165° South 421 484 35,100 46 Climbing Los Angeles Center
Wed 04:03:32 PM 35.8217 -119.0311 165° South 424 488 35,100  Level Los Angeles Center
Wed 04:04:34 PM 35.7022 -118.9914 165° South 432 497 35,100 -48 Level Los Angeles Center
Wed 04:05:36 PM 35.5803 -118.9528 166° South 440 506 35,000 -48 Descending Los Angeles Center
Wed 04:06:38 PM 35.4614 -118.9150 165° South 441 507 35,000 48 Level Los Angeles Center
Wed 04:07:40 PM 35.3389 -118.8744 165° South 446 513 35,100 48 Climbing Los Angeles Center
Wed 04:08:42 PM 35.1953 -118.8283 165° South 445 512 35,100 -48 Level Los Angeles Center
Wed 04:09:44 PM 35.0764 -118.7889 165° South 445 512 35,000  Descending Los Angeles Center
Wed 04:10:46 PM 34.9561 -118.7517 166° South 445 512 35,100 48 Climbing Los Angeles Center
Wed 04:11:48 PM 34.8339 -118.7133 166° South 445 512 35,100  Level Los Angeles Center
Wed 04:12:50 PM 34.7150 -118.6767 166° South 444 511 35,100 -336 Level Los Angeles Center
Wed 04:13:53 PM 34.5961 -118.6392 165° South 442 509 34,400 -768 Descending Los Angeles Center
Wed 04:14:55 PM 34.4564 -118.5811 161° South 446 513 33,500 -452 Descending Los Angeles Center
Wed 04:16:59 PM 34.2414 -118.4086 145° Southeast 462 532 33,000 -161 Descending Los Angeles Center
Wed 04:18:01 PM 34.1336 -118.3283 148° Southeast 458 527 33,000 -194 Level Los Angeles Center
Wed 04:19:03 PM 34.0214 -118.2422 148° Southeast 457 526 32,600 -1,210 Descending Los Angeles Center
Wed 04:20:05 PM 33.9147 -118.1611 148° Southeast 456 525 30,500 -2,160 Descending Los Angeles Center
Wed 04:21:08 PM 33.8067 -118.0786 148° Southeast 457 526 28,100 -2,160 Descending Los Angeles Center
Wed 04:22:10 PM 33.6939 -117.9944 148° Southeast 467 537 26,000 -2,565 Descending Los Angeles Center
Wed 04:23:12 PM 33.5636 -117.8983 148° Southeast 457 526 22,800 -2,758 Descending Los Angeles Center
Wed 04:24:14 PM 33.4581 -117.8200 148° Southeast 447 514 20,300 -2,274 Descending Los Angeles Center
Wed 04:25:16 PM 33.3722 -117.7111 133° Southeast 448 516 18,100 -1,645 Descending Los Angeles Center
Wed 04:26:18 PM 33.2892 -117.6122 135° Southeast 426 490 16,900 -1,374 Descending Los Angeles Center
Wed 04:27:27 PM 33.1833 -117.5000 138° Southeast 398 458 15,100 -1,349 Descending Southern California TRACON
Wed 04:28:27 PM 33.1000 -117.4333 146° Southeast 377 434 14,000 -1,729 Descending Southern California TRACON
Wed 04:29:25 PM 33.0153 -117.3708 148° Southeast 374 430 11,700 -2,100 Descending Los Angeles Center
Wed 04:30:27 PM 32.9356 -117.3117 148° Southeast 344 396 9,800 -2,081 Descending Los Angeles Center
Wed 04:31:29 PM 32.8719 -117.2533 142° Southeast 299 344 7,400 -2,274 Descending Los Angeles Center
Wed 04:32:31 PM 32.8108 -117.1958 142° Southeast 286 329 5,100 -1,152 Descending Los Angeles Center
Wed 04:33:34 PM 32.7692 -117.1033 118° Southeast 276 318 5,000 -308 Descending Los Angeles Center
Wed 04:34:28 PM 32.7500 -117.0167 105° East 266 306 4,500 -450 Descending Southern California TRACON
Wed 04:35:34 PM 32.7167 -116.9667 128° Southeast 243 280 4,100 -450 Descending Southern California TRACON
Wed 04:36:28 PM 32.6833 -117.0000 220° Southwest 228 262 3,600 -900 Descending Southern California TRACON
Wed 04:37:34 PM 32.7000 -117.0500 292° West 151 174 2,300 -905 Descending Southern California TRACON
Wed 04:38:34 PM 32.7167 -117.1000 292° West 143 165 1,700 -800 Descending Southern California TRACON
Wed 04:39:34 PM 32.7167 -117.1333 270° West 124 143 700 -578 Descending Southern California TRACON
Wed 04:40:49 PM 32.7322 -117.1839 290° West 132 152 400 -240 Descending Los Angeles Center

Login

Don't have an account? Register now (free) for customized features, flight alerts, and more!